sensor_id;sensor_type;location;lat;lon;timestamp;temperature;humidity
19200;DHT22;9732;52.498;5.408;2023-12-20T00:01:03;7.20;99.90
19200;DHT22;9732;52.498;5.408;2023-12-20T00:03:30;7.20;99.90
19200;DHT22;9732;52.498;5.408;2023-12-20T00:05:57;7.30;99.90
19200;DHT22;9732;52.498;5.408;2023-12-20T00:08:26;7.20;99.90
19200;DHT22;9732;52.498;5.408;2023-12-20T00:10:53;7.20;99.90
19200;DHT22;9732;52.498;5.408;2023-12-20T00:13:22;7.20;99.90
19200;DHT22;9732;52.498;5.408;2023-12-20T00:15:49;7.30;99.90
19200;DHT22;9732;52.498;5.408;2023-12-20T00:18:16;7.20;99.90
19200;DHT22;9732;52.498;5.408;2023-12-20T00:20:43;7.20;99.90
19200;DHT22;9732;52.498;5.408;2023-12-20T00:23:10;7.10;99.90
19200;DHT22;9732;52.498;5.408;2023-12-20T00:25:38;7.20;99.90
19200;DHT22;9732;52.498;5.408;2023-12-20T00:28:05;7.20;99.90
19200;DHT22;9732;52.498;5.408;2023-12-20T00:30:35;7.20;99.90
19200;DHT22;9732;52.498;5.408;2023-12-20T00:33:02;7.20;99.90
19200;DHT22;9732;52.498;5.408;2023-12-20T00:35:30;7.30;99.90
19200;DHT22;9732;52.498;5.408;2023-12-20T00:37:58;7.30;99.90
19200;DHT22;9732;52.498;5.408;2023-12-20T00:40:25;7.30;99.90
19200;DHT22;9732;52.498;5.408;2023-12-20T00:42:53;7.50;99.90
19200;DHT22;9732;52.498;5.408;2023-12-20T00:45:20;7.30;99.90
19200;DHT22;9732;52.498;5.408;2023-12-20T00:47:48;7.30;99.90
19200;DHT22;9732;52.498;5.408;2023-12-20T00:50:16;7.30;99.90
19200;DHT22;9732;52.498;5.408;2023-12-20T00:52:43;7.30;99.90
19200;DHT22;9732;52.498;5.408;2023-12-20T00:55:11;7.30;99.90
19200;DHT22;9732;52.498;5.408;2023-12-20T00:57:39;7.30;99.90
19200;DHT22;9732;52.498;5.408;2023-12-20T01:00:08;7.20;99.90
19200;DHT22;9732;52.498;5.408;2023-12-20T01:02:35;7.20;99.90
19200;DHT22;9732;52.498;5.408;2023-12-20T01:05:07;7.30;99.90
19200;DHT22;9732;52.498;5.408;2023-12-20T01:07:34;7.30;99.90
19200;DHT22;9732;52.498;5.408;2023-12-20T01:10:03;7.40;99.90
19200;DHT22;9732;52.498;5.408;2023-12-20T01:12:31;7.40;99.90
19200;DHT22;9732;52.498;5.408;2023-12-20T01:14:57;7.40;99.90
19200;DHT22;9732;52.498;5.408;2023-12-20T01:17:25;7.30;99.90
19200;DHT22;9732;52.498;5.408;2023-12-20T01:19:52;7.40;99.90
19200;DHT22;9732;52.498;5.408;2023-12-20T01:22:21;7.30;99.90
19200;DHT22;9732;52.498;5.408;2023-12-20T01:24:50;7.30;99.90
19200;DHT22;9732;52.498;5.408;2023-12-20T01:27:17;7.30;99.90
19200;DHT22;9732;52.498;5.408;2023-12-20T01:29:44;7.30;99.90
19200;DHT22;9732;52.498;5.408;2023-12-20T01:32:15;7.30;99.90
19200;DHT22;9732;52.498;5.408;2023-12-20T01:34:42;7.30;99.90
19200;DHT22;9732;52.498;5.408;2023-12-20T01:37:11;7.30;99.90
19200;DHT22;9732;52.498;5.408;2023-12-20T01:39:41;7.30;99.90
19200;DHT22;9732;52.498;5.408;2023-12-20T01:42:07;7.30;99.90
19200;DHT22;9732;52.498;5.408;2023-12-20T01:44:37;7.40;99.90
19200;DHT22;9732;52.498;5.408;2023-12-20T01:47:04;7.40;99.90
19200;DHT22;9732;52.498;5.408;2023-12-20T01:49:31;7.40;99.90
19200;DHT22;9732;52.498;5.408;2023-12-20T01:52:00;7.40;99.90
19200;DHT22;9732;52.498;5.408;2023-12-20T01:54:27;7.40;99.90
19200;DHT22;9732;52.498;5.408;2023-12-20T01:56:56;7.50;99.90
19200;DHT22;9732;52.498;5.408;2023-12-20T01:59:23;7.50;99.90
19200;DHT22;9732;52.498;5.408;2023-12-20T02:01:50;7.50;99.90
19200;DHT22;9732;52.498;5.408;2023-12-20T02:04:19;7.40;99.90
19200;DHT22;9732;52.498;5.408;2023-12-20T02:06:47;7.40;99.90
19200;DHT22;9732;52.498;5.408;2023-12-20T02:09:15;7.50;99.90
19200;DHT22;9732;52.498;5.408;2023-12-20T02:11:44;7.50;99.90
19200;DHT22;9732;52.498;5.408;2023-12-20T02:14:12;7.50;99.90
19200;DHT22;9732;52.498;5.408;2023-12-20T02:16:39;7.50;99.90
19200;DHT22;9732;52.498;5.408;2023-12-20T02:19:13;7.50;99.90
19200;DHT22;9732;52.498;5.408;2023-12-20T02:21:42;7.50;99.90
19200;DHT22;9732;52.498;5.408;2023-12-20T02:24:12;7.50;99.90
19200;DHT22;9732;52.498;5.408;2023-12-20T02:26:39;7.50;99.90
19200;DHT22;9732;52.498;5.408;2023-12-20T02:29:07;7.50;99.90
19200;DHT22;9732;52.498;5.408;2023-12-20T02:31:35;7.50;99.90
19200;DHT22;9732;52.498;5.408;2023-12-20T02:34:01;7.60;99.90
19200;DHT22;9732;52.498;5.408;2023-12-20T02:36:28;7.50;99.90
19200;DHT22;9732;52.498;5.408;2023-12-20T02:38:57;7.50;99.90
19200;DHT22;9732;52.498;5.408;2023-12-20T02:41:24;7.60;99.90
19200;DHT22;9732;52.498;5.408;2023-12-20T02:43:52;7.60;99.90
19200;DHT22;9732;52.498;5.408;2023-12-20T02:46:19;7.60;99.90
19200;DHT22;9732;52.498;5.408;2023-12-20T02:48:46;7.60;99.90
19200;DHT22;9732;52.498;5.408;2023-12-20T02:51:13;7.60;99.90
19200;DHT22;9732;52.498;5.408;2023-12-20T02:53:41;7.60;99.90
19200;DHT22;9732;52.498;5.408;2023-12-20T02:56:09;7.60;99.90
19200;DHT22;9732;52.498;5.408;2023-12-20T02:58:37;7.60;99.90
19200;DHT22;9732;52.498;5.408;2023-12-20T03:01:04;7.60;99.90
19200;DHT22;9732;52.498;5.408;2023-12-20T03:03:31;7.60;99.90
19200;DHT22;9732;52.498;5.408;2023-12-20T03:05:59;7.60;99.90
19200;DHT22;9732;52.498;5.408;2023-12-20T03:08:27;7.60;99.90
19200;DHT22;9732;52.498;5.408;2023-12-20T03:10:54;7.60;99.90
19200;DHT22;9732;52.498;5.408;2023-12-20T03:13:23;7.60;99.90
19200;DHT22;9732;52.498;5.408;2023-12-20T03:15:50;7.60;99.90
19200;DHT22;9732;52.498;5.408;2023-12-20T03:18:17;7.60;99.90
19200;DHT22;9732;52.498;5.408;2023-12-20T03:20:45;7.60;99.90
19200;DHT22;9732;52.498;5.408;2023-12-20T03:23:13;7.50;99.90
19200;DHT22;9732;52.498;5.408;2023-12-20T03:25:40;7.50;99.90
19200;DHT22;9732;52.498;5.408;2023-12-20T03:28:08;7.60;99.90
19200;DHT22;9732;52.498;5.408;2023-12-20T03:30:38;7.60;99.90
19200;DHT22;9732;52.498;5.408;2023-12-20T03:33:05;7.60;99.90
19200;DHT22;9732;52.498;5.408;2023-12-20T03:35:33;7.50;99.90
19200;DHT22;9732;52.498;5.408;2023-12-20T03:38:00;7.50;99.90
19200;DHT22;9732;52.498;5.408;2023-12-20T03:40:27;7.50;99.90
19200;DHT22;9732;52.498;5.408;2023-12-20T03:42:55;7.60;99.90
19200;DHT22;9732;52.498;5.408;2023-12-20T03:45:21;7.60;99.90
19200;DHT22;9732;52.498;5.408;2023-12-20T03:47:49;7.60;99.90
19200;DHT22;9732;52.498;5.408;2023-12-20T03:50:21;7.60;99.90
19200;DHT22;9732;52.498;5.408;2023-12-20T03:52:48;7.60;99.90
19200;DHT22;9732;52.498;5.408;2023-12-20T03:55:17;7.60;99.90
19200;DHT22;9732;52.498;5.408;2023-12-20T03:57:44;7.60;99.90
19200;DHT22;9732;52.498;5.408;2023-12-20T04:00:12;7.50;99.90
19200;DHT22;9732;52.498;5.408;2023-12-20T04:02:40;7.50;99.90
19200;DHT22;9732;52.498;5.408;2023-12-20T04:05:10;7.50;99.90
19200;DHT22;9732;52.498;5.408;2023-12-20T04:07:37;7.50;99.90
19200;DHT22;9732;52.498;5.408;2023-12-20T04:10:06;7.50;99.90
19200;DHT22;9732;52.498;5.408;2023-12-20T04:12:33;7.50;99.90
19200;DHT22;9732;52.498;5.408;2023-12-20T04:14:59;7.50;99.90
19200;DHT22;9732;52.498;5.408;2023-12-20T04:17:27;7.50;99.90
19200;DHT22;9732;52.498;5.408;2023-12-20T04:19:54;7.60;99.90
19200;DHT22;9732;52.498;5.408;2023-12-20T04:22:23;7.60;99.90
19200;DHT22;9732;52.498;5.408;2023-12-20T04:24:51;7.70;99.90
19200;DHT22;9732;52.498;5.408;2023-12-20T04:27:18;7.60;99.90
19200;DHT22;9732;52.498;5.408;2023-12-20T04:29:46;7.70;99.90
19200;DHT22;9732;52.498;5.408;2023-12-20T04:32:14;7.70;99.90
19200;DHT22;9732;52.498;5.408;2023-12-20T04:34:40;7.60;99.90
19200;DHT22;9732;52.498;5.408;2023-12-20T04:37:07;7.60;99.90
19200;DHT22;9732;52.498;5.408;2023-12-20T04:39:36;7.60;99.90
19200;DHT22;9732;52.498;5.408;2023-12-20T04:42:04;7.60;99.90
19200;DHT22;9732;52.498;5.408;2023-12-20T04:44:32;7.60;99.90
19200;DHT22;9732;52.498;5.408;2023-12-20T04:46:59;7.60;99.90
19200;DHT22;9732;52.498;5.408;2023-12-20T04:49:26;7.60;99.90
19200;DHT22;9732;52.498;5.408;2023-12-20T04:51:54;7.60;99.90
19200;DHT22;9732;52.498;5.408;2023-12-20T04:54:22;7.60;99.90
19200;DHT22;9732;52.498;5.408;2023-12-20T04:56:51;7.70;99.90
19200;DHT22;9732;52.498;5.408;2023-12-20T04:59:17;7.70;99.90
19200;DHT22;9732;52.498;5.408;2023-12-20T05:01:44;7.70;99.90
19200;DHT22;9732;52.498;5.408;2023-12-20T05:04:11;7.70;99.90
19200;DHT22;9732;52.498;5.408;2023-12-20T05:06:37;7.70;99.90
19200;DHT22;9732;52.498;5.408;2023-12-20T05:09:04;7.70;99.90
19200;DHT22;9732;52.498;5.408;2023-12-20T05:11:31;7.70;99.90
19200;DHT22;9732;52.498;5.408;2023-12-20T05:13:59;7.70;99.90
19200;DHT22;9732;52.498;5.408;2023-12-20T05:16:26;7.70;99.90
19200;DHT22;9732;52.498;5.408;2023-12-20T05:18:53;7.70;99.90
19200;DHT22;9732;52.498;5.408;2023-12-20T05:21:20;7.70;99.90
19200;DHT22;9732;52.498;5.408;2023-12-20T05:23:46;7.90;99.90
19200;DHT22;9732;52.498;5.408;2023-12-20T05:26:13;7.70;99.90
19200;DHT22;9732;52.498;5.408;2023-12-20T05:28:40;7.70;99.90
19200;DHT22;9732;52.498;5.408;2023-12-20T05:31:08;7.70;99.90
19200;DHT22;9732;52.498;5.408;2023-12-20T05:33:35;7.80;99.90
19200;DHT22;9732;52.498;5.408;2023-12-20T05:36:02;7.70;99.90
19200;DHT22;9732;52.498;5.408;2023-12-20T05:38:29;7.80;99.90
19200;DHT22;9732;52.498;5.408;2023-12-20T05:40:56;7.80;99.90
19200;DHT22;9732;52.498;5.408;2023-12-20T05:43:22;7.90;99.90
19200;DHT22;9732;52.498;5.408;2023-12-20T05:45:49;7.80;99.90
19200;DHT22;9732;52.498;5.408;2023-12-20T05:48:17;7.80;99.90
19200;DHT22;9732;52.498;5.408;2023-12-20T05:50:44;7.80;99.90
19200;DHT22;9732;52.498;5.408;2023-12-20T05:53:11;7.80;99.90
19200;DHT22;9732;52.498;5.408;2023-12-20T05:55:37;7.90;99.90
19200;DHT22;9732;52.498;5.408;2023-12-20T05:58:04;7.90;99.90
19200;DHT22;9732;52.498;5.408;2023-12-20T06:00:31;7.90;99.90
19200;DHT22;9732;52.498;5.408;2023-12-20T06:02:58;7.90;99.90
19200;DHT22;9732;52.498;5.408;2023-12-20T06:05:28;7.90;99.90
19200;DHT22;9732;52.498;5.408;2023-12-20T06:07:56;7.90;99.90
19200;DHT22;9732;52.498;5.408;2023-12-20T06:10:28;7.90;99.90
19200;DHT22;9732;52.498;5.408;2023-12-20T06:12:55;7.90;99.90
19200;DHT22;9732;52.498;5.408;2023-12-20T06:15:25;7.90;99.90
19200;DHT22;9732;52.498;5.408;2023-12-20T06:17:53;7.90;99.90
19200;DHT22;9732;52.498;5.408;2023-12-20T06:20:20;7.90;99.90
19200;DHT22;9732;52.498;5.408;2023-12-20T06:22:48;7.90;99.90
19200;DHT22;9732;52.498;5.408;2023-12-20T06:25:16;7.90;99.90
19200;DHT22;9732;52.498;5.408;2023-12-20T06:27:43;7.90;99.90
19200;DHT22;9732;52.498;5.408;2023-12-20T06:30:13;7.90;99.90
19200;DHT22;9732;52.498;5.408;2023-12-20T06:32:40;7.90;99.90
19200;DHT22;9732;52.498;5.408;2023-12-20T06:35:09;7.90;99.90
19200;DHT22;9732;52.498;5.408;2023-12-20T06:37:38;7.90;99.90
19200;DHT22;9732;52.498;5.408;2023-12-20T06:40:10;7.90;99.90
19200;DHT22;9732;52.498;5.408;2023-12-20T06:42:37;7.90;99.90
19200;DHT22;9732;52.498;5.408;2023-12-20T06:45:08;7.90;99.90
19200;DHT22;9732;52.498;5.408;2023-12-20T06:47:36;7.90;99.90
19200;DHT22;9732;52.498;5.408;2023-12-20T06:50:04;7.90;99.90
19200;DHT22;9732;52.498;5.408;2023-12-20T06:52:30;7.90;99.90
19200;DHT22;9732;52.498;5.408;2023-12-20T06:54:59;8.00;99.90
19200;DHT22;9732;52.498;5.408;2023-12-20T06:57:27;8.00;99.90
19200;DHT22;9732;52.498;5.408;2023-12-20T06:59:54;8.00;99.90
19200;DHT22;9732;52.498;5.408;2023-12-20T07:02:22;8.00;99.90
19200;DHT22;9732;52.498;5.408;2023-12-20T07:04:49;8.00;99.90
19200;DHT22;9732;52.498;5.408;2023-12-20T07:07:16;8.00;99.90
19200;DHT22;9732;52.498;5.408;2023-12-20T07:09:44;8.10;99.90
19200;DHT22;9732;52.498;5.408;2023-12-20T07:12:11;8.00;99.90
19200;DHT22;9732;52.498;5.408;2023-12-20T07:14:40;8.00;99.90
19200;DHT22;9732;52.498;5.408;2023-12-20T07:17:08;7.90;99.90
19200;DHT22;9732;52.498;5.408;2023-12-20T07:19:37;7.90;99.90
19200;DHT22;9732;52.498;5.408;2023-12-20T07:22:05;7.90;99.90
19200;DHT22;9732;52.498;5.408;2023-12-20T07:24:33;7.90;99.90
19200;DHT22;9732;52.498;5.408;2023-12-20T07:27:00;7.90;99.90
19200;DHT22;9732;52.498;5.408;2023-12-20T07:29:27;7.90;99.90
19200;DHT22;9732;52.498;5.408;2023-12-20T07:31:56;7.90;99.90
19200;DHT22;9732;52.498;5.408;2023-12-20T07:34:23;7.90;99.90
19200;DHT22;9732;52.498;5.408;2023-12-20T07:36:53;8.00;99.90
19200;DHT22;9732;52.498;5.408;2023-12-20T07:39:20;8.00;99.90
19200;DHT22;9732;52.498;5.408;2023-12-20T07:41:46;8.00;99.90
19200;DHT22;9732;52.498;5.408;2023-12-20T07:44:14;8.00;99.90
19200;DHT22;9732;52.498;5.408;2023-12-20T07:46:41;8.10;99.90
19200;DHT22;9732;52.498;5.408;2023-12-20T07:49:09;8.10;99.90
19200;DHT22;9732;52.498;5.408;2023-12-20T07:51:38;8.10;99.90
19200;DHT22;9732;52.498;5.408;2023-12-20T07:54:05;8.10;99.90
19200;DHT22;9732;52.498;5.408;2023-12-20T07:56:33;8.10;99.90
19200;DHT22;9732;52.498;5.408;2023-12-20T07:59:01;8.10;99.90
19200;DHT22;9732;52.498;5.408;2023-12-20T08:01:27;8.10;99.90
19200;DHT22;9732;52.498;5.408;2023-12-20T08:03:54;8.10;99.90
19200;DHT22;9732;52.498;5.408;2023-12-20T08:06:25;8.10;99.90
19200;DHT22;9732;52.498;5.408;2023-12-20T08:08:51;8.10;99.90
19200;DHT22;9732;52.498;5.408;2023-12-20T08:11:18;8.10;99.90
19200;DHT22;9732;52.498;5.408;2023-12-20T08:13:47;8.10;99.90
19200;DHT22;9732;52.498;5.408;2023-12-20T08:16:13;8.10;99.90
19200;DHT22;9732;52.498;5.408;2023-12-20T08:18:43;8.10;99.90
19200;DHT22;9732;52.498;5.408;2023-12-20T08:21:11;8.10;99.90
19200;DHT22;9732;52.498;5.408;2023-12-20T08:23:39;8.20;99.90
19200;DHT22;9732;52.498;5.408;2023-12-20T08:26:08;8.20;99.90
19200;DHT22;9732;52.498;5.408;2023-12-20T08:28:36;8.20;99.90
19200;DHT22;9732;52.498;5.408;2023-12-20T08:31:06;8.20;99.90
19200;DHT22;9732;52.498;5.408;2023-12-20T08:33:33;8.20;99.90
19200;DHT22;9732;52.498;5.408;2023-12-20T08:36:00;8.30;99.90
19200;DHT22;9732;52.498;5.408;2023-12-20T08:38:32;8.30;99.90
19200;DHT22;9732;52.498;5.408;2023-12-20T08:41:01;8.30;99.90
19200;DHT22;9732;52.498;5.408;2023-12-20T08:43:29;8.30;99.90
19200;DHT22;9732;52.498;5.408;2023-12-20T08:45:57;8.30;99.90
19200;DHT22;9732;52.498;5.408;2023-12-20T08:48:24;8.30;99.90
19200;DHT22;9732;52.498;5.408;2023-12-20T08:50:51;8.30;99.90
19200;DHT22;9732;52.498;5.408;2023-12-20T08:53:18;8.30;99.90
19200;DHT22;9732;52.498;5.408;2023-12-20T08:55:46;8.30;99.90
19200;DHT22;9732;52.498;5.408;2023-12-20T08:58:15;8.30;99.90
19200;DHT22;9732;52.498;5.408;2023-12-20T09:00:42;8.40;99.90
19200;DHT22;9732;52.498;5.408;2023-12-20T09:03:09;8.30;99.90
19200;DHT22;9732;52.498;5.408;2023-12-20T09:05:37;8.30;99.90
19200;DHT22;9732;52.498;5.408;2023-12-20T09:08:06;8.30;99.90
19200;DHT22;9732;52.498;5.408;2023-12-20T09:10:33;8.30;99.90
19200;DHT22;9732;52.498;5.408;2023-12-20T09:13:01;8.30;99.90
19200;DHT22;9732;52.498;5.408;2023-12-20T09:15:30;8.30;99.90
19200;DHT22;9732;52.498;5.408;2023-12-20T09:18:00;8.40;99.90
19200;DHT22;9732;52.498;5.408;2023-12-20T09:20:28;8.40;99.90
19200;DHT22;9732;52.498;5.408;2023-12-20T09:22:55;8.30;99.90
19200;DHT22;9732;52.498;5.408;2023-12-20T09:25:23;8.30;99.90
19200;DHT22;9732;52.498;5.408;2023-12-20T09:27:51;8.30;99.90
19200;DHT22;9732;52.498;5.408;2023-12-20T09:30:18;8.30;99.90
19200;DHT22;9732;52.498;5.408;2023-12-20T09:32:48;8.30;99.90
19200;DHT22;9732;52.498;5.408;2023-12-20T09:35:15;8.30;99.90
19200;DHT22;9732;52.498;5.408;2023-12-20T09:37:42;8.30;99.90
19200;DHT22;9732;52.498;5.408;2023-12-20T09:40:12;8.40;99.90
19200;DHT22;9732;52.498;5.408;2023-12-20T09:42:46;8.30;99.90
19200;DHT22;9732;52.498;5.408;2023-12-20T09:45:15;8.30;99.90
19200;DHT22;9732;52.498;5.408;2023-12-20T09:47:43;8.30;99.90
19200;DHT22;9732;52.498;5.408;2023-12-20T09:50:12;8.30;99.90
19200;DHT22;9732;52.498;5.408;2023-12-20T09:52:41;8.40;99.90
19200;DHT22;9732;52.498;5.408;2023-12-20T09:55:12;8.40;99.90
19200;DHT22;9732;52.498;5.408;2023-12-20T09:57:39;8.50;99.90
19200;DHT22;9732;52.498;5.408;2023-12-20T10:00:07;8.60;99.90
19200;DHT22;9732;52.498;5.408;2023-12-20T10:02:36;8.60;99.90
19200;DHT22;9732;52.498;5.408;2023-12-20T10:05:08;8.60;99.90
19200;DHT22;9732;52.498;5.408;2023-12-20T10:07:37;8.60;99.90
19200;DHT22;9732;52.498;5.408;2023-12-20T10:10:05;8.60;99.90
19200;DHT22;9732;52.498;5.408;2023-12-20T10:12:32;8.60;99.90
19200;DHT22;9732;52.498;5.408;2023-12-20T10:15:03;8.60;99.90
19200;DHT22;9732;52.498;5.408;2023-12-20T10:17:30;8.60;99.90
19200;DHT22;9732;52.498;5.408;2023-12-20T10:19:58;8.60;99.90
19200;DHT22;9732;52.498;5.408;2023-12-20T10:22:26;8.60;99.90
19200;DHT22;9732;52.498;5.408;2023-12-20T10:24:56;8.60;99.90
19200;DHT22;9732;52.498;5.408;2023-12-20T10:27:23;8.60;99.90
19200;DHT22;9732;52.498;5.408;2023-12-20T10:29:58;8.60;99.90
19200;DHT22;9732;52.498;5.408;2023-12-20T10:32:35;8.60;99.90
19200;DHT22;9732;52.498;5.408;2023-12-20T10:35:08;8.70;99.90
19200;DHT22;9732;52.498;5.408;2023-12-20T10:37:42;8.70;99.90
19200;DHT22;9732;52.498;5.408;2023-12-20T10:40:12;8.80;99.90
19200;DHT22;9732;52.498;5.408;2023-12-20T10:42:39;8.80;99.90
19200;DHT22;9732;52.498;5.408;2023-12-20T10:45:08;8.80;99.90
19200;DHT22;9732;52.498;5.408;2023-12-20T10:47:36;8.80;99.90
19200;DHT22;9732;52.498;5.408;2023-12-20T10:50:05;8.80;99.90
19200;DHT22;9732;52.498;5.408;2023-12-20T10:52:33;8.80;99.90
19200;DHT22;9732;52.498;5.408;2023-12-20T10:55:01;8.90;99.90
19200;DHT22;9732;52.498;5.408;2023-12-20T10:57:30;8.90;99.90
19200;DHT22;9732;52.498;5.408;2023-12-20T11:00:00;8.90;99.90
19200;DHT22;9732;52.498;5.408;2023-12-20T11:02:30;9.00;99.90
19200;DHT22;9732;52.498;5.408;2023-12-20T11:05:05;9.00;99.90
19200;DHT22;9732;52.498;5.408;2023-12-20T11:07:36;9.00;99.90
19200;DHT22;9732;52.498;5.408;2023-12-20T11:10:16;9.00;99.90
19200;DHT22;9732;52.498;5.408;2023-12-20T11:12:48;8.90;99.90
19200;DHT22;9732;52.498;5.408;2023-12-20T11:15:19;8.90;99.90
19200;DHT22;9732;52.498;5.408;2023-12-20T11:17:47;8.90;99.90
19200;DHT22;9732;52.498;5.408;2023-12-20T11:20:22;9.00;99.90
19200;DHT22;9732;52.498;5.408;2023-12-20T11:22:53;9.10;99.90
19200;DHT22;9732;52.498;5.408;2023-12-20T11:25:20;9.20;99.90
19200;DHT22;9732;52.498;5.408;2023-12-20T11:28:08;9.10;99.90
19200;DHT22;9732;52.498;5.408;2023-12-20T11:30:42;9.10;99.90
19200;DHT22;9732;52.498;5.408;2023-12-20T11:33:09;9.10;99.90
19200;DHT22;9732;52.498;5.408;2023-12-20T11:35:36;9.00;99.90
19200;DHT22;9732;52.498;5.408;2023-12-20T11:38:06;9.00;99.90
19200;DHT22;9732;52.498;5.408;2023-12-20T11:40:34;8.90;99.90
19200;DHT22;9732;52.498;5.408;2023-12-20T11:43:03;8.90;99.90
19200;DHT22;9732;52.498;5.408;2023-12-20T11:45:30;8.80;99.90
19200;DHT22;9732;52.498;5.408;2023-12-20T11:47:58;8.80;99.90
19200;DHT22;9732;52.498;5.408;2023-12-20T11:50:25;8.80;99.90
19200;DHT22;9732;52.498;5.408;2023-12-20T11:52:52;8.90;99.90
19200;DHT22;9732;52.498;5.408;2023-12-20T11:55:19;8.80;99.90
19200;DHT22;9732;52.498;5.408;2023-12-20T11:57:46;8.80;99.90
19200;DHT22;9732;52.498;5.408;2023-12-20T12:00:15;8.80;99.90
19200;DHT22;9732;52.498;5.408;2023-12-20T12:02:42;8.80;99.90
19200;DHT22;9732;52.498;5.408;2023-12-20T12:05:09;8.80;99.90
19200;DHT22;9732;52.498;5.408;2023-12-20T12:07:35;8.70;99.90
19200;DHT22;9732;52.498;5.408;2023-12-20T12:10:03;8.80;99.90
19200;DHT22;9732;52.498;5.408;2023-12-20T12:12:30;8.80;99.90
19200;DHT22;9732;52.498;5.408;2023-12-20T12:14:58;8.80;99.90
19200;DHT22;9732;52.498;5.408;2023-12-20T12:17:26;8.80;99.90
19200;DHT22;9732;52.498;5.408;2023-12-20T12:20:02;8.80;99.90
19200;DHT22;9732;52.498;5.408;2023-12-20T12:22:29;8.80;99.90
19200;DHT22;9732;52.498;5.408;2023-12-20T12:24:59;8.80;99.90
19200;DHT22;9732;52.498;5.408;2023-12-20T12:27:27;8.80;99.90
19200;DHT22;9732;52.498;5.408;2023-12-20T12:30:00;8.80;99.90
19200;DHT22;9732;52.498;5.408;2023-12-20T12:32:29;8.80;99.90
19200;DHT22;9732;52.498;5.408;2023-12-20T12:34:56;8.80;99.90
19200;DHT22;9732;52.498;5.408;2023-12-20T12:37:23;8.80;99.90
19200;DHT22;9732;52.498;5.408;2023-12-20T12:39:50;8.80;99.90
19200;DHT22;9732;52.498;5.408;2023-12-20T12:42:19;8.80;99.90
19200;DHT22;9732;52.498;5.408;2023-12-20T12:44:46;8.90;99.90
19200;DHT22;9732;52.498;5.408;2023-12-20T12:47:13;8.80;99.90
19200;DHT22;9732;52.498;5.408;2023-12-20T12:49:42;8.80;99.90
19200;DHT22;9732;52.498;5.408;2023-12-20T12:52:08;8.80;99.90
19200;DHT22;9732;52.498;5.408;2023-12-20T12:54:35;8.80;99.90
19200;DHT22;9732;52.498;5.408;2023-12-20T12:57:03;8.80;99.90
19200;DHT22;9732;52.498;5.408;2023-12-20T12:59:30;8.80;99.90
19200;DHT22;9732;52.498;5.408;2023-12-20T13:01:56;8.80;99.90
19200;DHT22;9732;52.498;5.408;2023-12-20T13:04:24;8.80;99.90
19200;DHT22;9732;52.498;5.408;2023-12-20T13:06:52;8.80;99.90
19200;DHT22;9732;52.498;5.408;2023-12-20T13:09:18;8.80;99.90
19200;DHT22;9732;52.498;5.408;2023-12-20T13:11:45;8.80;99.90
19200;DHT22;9732;52.498;5.408;2023-12-20T13:14:12;8.70;99.90
19200;DHT22;9732;52.498;5.408;2023-12-20T13:16:41;8.80;99.90
19200;DHT22;9732;52.498;5.408;2023-12-20T13:19:08;8.80;99.90
19200;DHT22;9732;52.498;5.408;2023-12-20T13:21:35;8.80;99.90
19200;DHT22;9732;52.498;5.408;2023-12-20T13:24:04;8.80;99.90
19200;DHT22;9732;52.498;5.408;2023-12-20T13:26:31;8.80;99.90
19200;DHT22;9732;52.498;5.408;2023-12-20T13:28:58;8.70;99.90
19200;DHT22;9732;52.498;5.408;2023-12-20T13:31:25;8.80;99.90
19200;DHT22;9732;52.498;5.408;2023-12-20T13:33:51;8.70;99.90
19200;DHT22;9732;52.498;5.408;2023-12-20T13:36:18;8.80;99.90
19200;DHT22;9732;52.498;5.408;2023-12-20T13:38:45;8.70;99.90
19200;DHT22;9732;52.498;5.408;2023-12-20T13:41:13;8.70;99.90
19200;DHT22;9732;52.498;5.408;2023-12-20T13:43:40;8.70;99.90
19200;DHT22;9732;52.498;5.408;2023-12-20T13:46:06;8.70;99.90
19200;DHT22;9732;52.498;5.408;2023-12-20T13:48:33;8.70;99.90
19200;DHT22;9732;52.498;5.408;2023-12-20T13:51:00;8.70;99.90
19200;DHT22;9732;52.498;5.408;2023-12-20T13:53:28;8.70;99.90
19200;DHT22;9732;52.498;5.408;2023-12-20T13:55:55;8.70;99.90
19200;DHT22;9732;52.498;5.408;2023-12-20T13:58:23;8.70;99.90
19200;DHT22;9732;52.498;5.408;2023-12-20T14:00:50;8.70;99.90
19200;DHT22;9732;52.498;5.408;2023-12-20T14:03:16;8.70;99.90
19200;DHT22;9732;52.498;5.408;2023-12-20T14:05:43;8.80;99.90
19200;DHT22;9732;52.498;5.408;2023-12-20T14:08:10;8.80;99.90
19200;DHT22;9732;52.498;5.408;2023-12-20T14:10:37;8.80;99.90
19200;DHT22;9732;52.498;5.408;2023-12-20T14:13:04;8.80;99.90
19200;DHT22;9732;52.498;5.408;2023-12-20T14:15:33;8.80;99.90
19200;DHT22;9732;52.498;5.408;2023-12-20T14:18:03;8.80;99.90
19200;DHT22;9732;52.498;5.408;2023-12-20T14:20:31;8.80;99.90
19200;DHT22;9732;52.498;5.408;2023-12-20T14:23:00;8.80;99.90
19200;DHT22;9732;52.498;5.408;2023-12-20T14:25:26;8.80;99.90
19200;DHT22;9732;52.498;5.408;2023-12-20T14:27:53;8.70;99.90
19200;DHT22;9732;52.498;5.408;2023-12-20T14:30:20;8.80;99.90
19200;DHT22;9732;52.498;5.408;2023-12-20T14:32:48;8.70;99.90
19200;DHT22;9732;52.498;5.408;2023-12-20T14:35:15;8.70;99.90
19200;DHT22;9732;52.498;5.408;2023-12-20T14:37:41;8.70;99.90
19200;DHT22;9732;52.498;5.408;2023-12-20T14:40:10;8.70;99.90
19200;DHT22;9732;52.498;5.408;2023-12-20T14:42:40;8.70;99.90
19200;DHT22;9732;52.498;5.408;2023-12-20T14:45:08;8.70;99.90
19200;DHT22;9732;52.498;5.408;2023-12-20T14:47:34;8.70;99.90
19200;DHT22;9732;52.498;5.408;2023-12-20T14:50:05;8.70;99.90
19200;DHT22;9732;52.498;5.408;2023-12-20T14:52:32;8.70;99.90
19200;DHT22;9732;52.498;5.408;2023-12-20T14:55:00;8.60;99.90
19200;DHT22;9732;52.498;5.408;2023-12-20T14:57:28;8.60;99.90
19200;DHT22;9732;52.498;5.408;2023-12-20T14:59:55;8.60;99.90
19200;DHT22;9732;52.498;5.408;2023-12-20T15:02:21;8.60;99.90
19200;DHT22;9732;52.498;5.408;2023-12-20T15:04:48;8.60;99.90
19200;DHT22;9732;52.498;5.408;2023-12-20T15:07:17;8.70;99.90
19200;DHT22;9732;52.498;5.408;2023-12-20T15:09:44;8.70;99.90
19200;DHT22;9732;52.498;5.408;2023-12-20T15:12:13;8.70;99.90
19200;DHT22;9732;52.498;5.408;2023-12-20T15:14:40;8.70;99.90
19200;DHT22;9732;52.498;5.408;2023-12-20T15:17:08;8.70;99.90
19200;DHT22;9732;52.498;5.408;2023-12-20T15:19:35;8.70;99.90
19200;DHT22;9732;52.498;5.408;2023-12-20T15:22:02;8.70;99.90
19200;DHT22;9732;52.498;5.408;2023-12-20T15:24:31;8.70;99.90
19200;DHT22;9732;52.498;5.408;2023-12-20T15:27:06;8.70;99.90
19200;DHT22;9732;52.498;5.408;2023-12-20T15:29:36;8.70;99.90
19200;DHT22;9732;52.498;5.408;2023-12-20T15:32:04;8.60;99.90
19200;DHT22;9732;52.498;5.408;2023-12-20T15:34:32;8.70;99.90
19200;DHT22;9732;52.498;5.408;2023-12-20T15:36:59;8.70;99.90
19200;DHT22;9732;52.498;5.408;2023-12-20T15:39:26;8.70;99.90
19200;DHT22;9732;52.498;5.408;2023-12-20T15:41:54;8.70;99.90
19200;DHT22;9732;52.498;5.408;2023-12-20T15:44:21;8.70;99.90
19200;DHT22;9732;52.498;5.408;2023-12-20T15:46:48;8.70;99.90
19200;DHT22;9732;52.498;5.408;2023-12-20T15:49:14;8.70;99.90
19200;DHT22;9732;52.498;5.408;2023-12-20T15:51:43;8.70;99.90
19200;DHT22;9732;52.498;5.408;2023-12-20T15:54:10;8.70;99.90
19200;DHT22;9732;52.498;5.408;2023-12-20T15:56:37;8.70;99.90
19200;DHT22;9732;52.498;5.408;2023-12-20T15:59:07;8.70;99.90
19200;DHT22;9732;52.498;5.408;2023-12-20T16:01:35;8.70;99.90
19200;DHT22;9732;52.498;5.408;2023-12-20T16:04:02;8.70;99.90
19200;DHT22;9732;52.498;5.408;2023-12-20T16:06:28;8.60;99.90